Airfield :
LOGIN :

Register | Disclaimer

   EN    FR    IT 

 










Legend :    VFR   Marginal VFR   IFR   Intensive IFR   Very Intensive IFR
Visi :
Ceiling :
>= 8 km
>= 3000ft
5 to 8 km
1000 to 3000 ft
1500m to 5 km
500 to 1000 ft
800 to 1500m
200 to 500 ft
< 800m
< 200 ft
Symbols :   Thunderstorms  Fog  Heavy snow  Heavy precipitations  Wind > 20 kt
SIGMETs :     Misc.  Thunderstorms  Icing  Turbulence  Mountain Waves  Volcanic Ashes






- Airport Elevation : 359 ft
- IATA code : BVA


LFOB - Beauvais

CURRENT METAR :
  • 231800Z AUTO 09003KT CAVOK 12/11 Q1009 TEMPO BKN008

EXPIRED METARs :
  • 231730Z AUTO VRB01KT CAVOK 13/12 Q1009 TEMPO BKN008
  • 231700Z AUTO 15004KT CAVOK 14/12 Q1010 NOSIG
  • 231630Z AUTO 14004KT 9999 FEW010 BKN120 14/12 Q1009 NOSIG
  • 231600Z AUTO 10005KT 9999 FEW010 BKN110 14/12 Q1008 NOSIG
  • 231530Z AUTO 09005KT 050V120 CAVOK 15/12 Q1008 NOSIG

TAF TAF LFOB
Valid from the 23 at 18:00 until the 24 at 18:00 UTC


231700Z 2318/2418 VRB03KT 9999 SCT013 BKN100
PROB30 2318/2320 BKN008
BECMG 2320/2323 3000 BR
PROB40
TEMPO 2323/2405 0300 FG VV///
BECMG 2405/2408 18010KT 8000 NSW BKN005
BECMG 2408/2411 OVC013
PROB40
TEMPO 2411/2417 24017G27KT 3000 RA BKN005 BKN030TCU
FM241700 24010KT 9999 BKN025
ATIS : +33 3 44 11 49 28



MET'MAP, your aeronautical weather chart ! - Copyright ORBIFLY December 2007 - Disclaimer

ORBIFLY MET'MAP TEAM :

Programming & Development : Alexandra Zaïnal
Concept & Development : Baudouin d'Aumeries
Co-Development & Prog : Marc-Olivier Méhu
Technical & hardware support : Manuel Goepfert

Contact : metmap@orbifly.com




SOURCES & CREDITS :

   NOAA